sensor_id;sensor_type;location;lat;lon;timestamp;P1;durP1;ratioP1;P2;durP2;ratioP2
9809;SDS011;4944;52.514;13.192;2022-12-01T00:02:21;52.90;;;27.80;;
9809;SDS011;4944;52.514;13.192;2022-12-01T00:04:48;48.90;;;25.60;;
9809;SDS011;4944;52.514;13.192;2022-12-01T00:07:14;53.40;;;25.83;;
9809;SDS011;4944;52.514;13.192;2022-12-01T00:09:41;51.63;;;25.60;;
9809;SDS011;4944;52.514;13.192;2022-12-01T00:12:27;48.67;;;25.13;;
9809;SDS011;4944;52.514;13.192;2022-12-01T00:14:55;53.13;;;25.87;;
9809;SDS011;4944;52.514;13.192;2022-12-01T00:17:24;56.33;;;26.53;;
9809;SDS011;4944;52.514;13.192;2022-12-01T00:19:52;49.53;;;24.73;;
9809;SDS011;4944;52.514;13.192;2022-12-01T00:22:20;50.33;;;25.57;;
9809;SDS011;4944;52.514;13.192;2022-12-01T00:24:47;50.73;;;26.17;;
9809;SDS011;4944;52.514;13.192;2022-12-01T00:27:14;52.17;;;25.80;;
9809;SDS011;4944;52.514;13.192;2022-12-01T00:29:42;51.80;;;25.67;;
9809;SDS011;4944;52.514;13.192;2022-12-01T00:32:10;50.13;;;25.13;;
9809;SDS011;4944;52.514;13.192;2022-12-01T00:34:37;50.90;;;26.63;;
9809;SDS011;4944;52.514;13.192;2022-12-01T00:37:04;50.10;;;25.87;;
9809;SDS011;4944;52.514;13.192;2022-12-01T00:39:31;54.67;;;27.80;;
9809;SDS011;4944;52.514;13.192;2022-12-01T00:41:58;54.70;;;26.20;;
9809;SDS011;4944;52.514;13.192;2022-12-01T00:44:25;52.43;;;24.93;;
9809;SDS011;4944;52.514;13.192;2022-12-01T00:46:53;51.03;;;25.50;;
9809;SDS011;4944;52.514;13.192;2022-12-01T00:49:20;50.07;;;25.53;;
9809;SDS011;4944;52.514;13.192;2022-12-01T00:51:47;52.40;;;25.70;;
9809;SDS011;4944;52.514;13.192;2022-12-01T00:54:14;51.13;;;26.00;;
9809;SDS011;4944;52.514;13.192;2022-12-01T00:56:41;45.47;;;24.47;;
9809;SDS011;4944;52.514;13.192;2022-12-01T00:59:08;51.13;;;25.43;;
9809;SDS011;4944;52.514;13.192;2022-12-01T01:01:35;49.70;;;23.80;;
9809;SDS011;4944;52.514;13.192;2022-12-01T01:04:04;50.13;;;25.80;;
9809;SDS011;4944;52.514;13.192;2022-12-01T01:06:31;52.60;;;25.20;;
9809;SDS011;4944;52.514;13.192;2022-12-01T01:08:58;44.20;;;23.37;;
9809;SDS011;4944;52.514;13.192;2022-12-01T01:11:25;50.57;;;24.00;;
9809;SDS011;4944;52.514;13.192;2022-12-01T01:13:52;49.53;;;25.10;;
9809;SDS011;4944;52.514;13.192;2022-12-01T01:16:20;48.43;;;25.27;;
9809;SDS011;4944;52.514;13.192;2022-12-01T01:18:47;50.53;;;25.50;;
9809;SDS011;4944;52.514;13.192;2022-12-01T01:21:16;51.17;;;25.57;;
9809;SDS011;4944;52.514;13.192;2022-12-01T01:23:45;49.87;;;25.73;;
9809;SDS011;4944;52.514;13.192;2022-12-01T01:26:12;51.20;;;25.50;;
9809;SDS011;4944;52.514;13.192;2022-12-01T01:28:40;43.57;;;23.17;;
9809;SDS011;4944;52.514;13.192;2022-12-01T01:31:07;51.23;;;25.43;;
9809;SDS011;4944;52.514;13.192;2022-12-01T01:33:36;53.43;;;25.27;;
9809;SDS011;4944;52.514;13.192;2022-12-01T01:36:03;45.93;;;24.10;;
9809;SDS011;4944;52.514;13.192;2022-12-01T01:38:32;45.00;;;23.90;;
9809;SDS011;4944;52.514;13.192;2022-12-01T01:40:59;43.47;;;22.97;;
9809;SDS011;4944;52.514;13.192;2022-12-01T01:43:37;47.67;;;24.90;;
9809;SDS011;4944;52.514;13.192;2022-12-01T01:46:06;47.20;;;23.67;;
9809;SDS011;4944;52.514;13.192;2022-12-01T01:48:35;44.13;;;23.27;;
9809;SDS011;4944;52.514;13.192;2022-12-01T01:51:03;45.87;;;24.27;;
9809;SDS011;4944;52.514;13.192;2022-12-01T01:53:32;43.23;;;22.93;;
9809;SDS011;4944;52.514;13.192;2022-12-01T01:55:59;41.60;;;21.90;;
9809;SDS011;4944;52.514;13.192;2022-12-01T01:58:28;44.40;;;22.20;;
9809;SDS011;4944;52.514;13.192;2022-12-01T02:00:56;44.83;;;22.93;;
9809;SDS011;4944;52.514;13.192;2022-12-01T02:03:23;40.20;;;23.03;;
9809;SDS011;4944;52.514;13.192;2022-12-01T02:05:51;42.40;;;21.73;;
9809;SDS011;4944;52.514;13.192;2022-12-01T02:08:18;41.53;;;22.70;;
9809;SDS011;4944;52.514;13.192;2022-12-01T02:10:52;40.47;;;22.33;;
9809;SDS011;4944;52.514;13.192;2022-12-01T02:13:32;39.20;;;21.37;;
9809;SDS011;4944;52.514;13.192;2022-12-01T02:16:08;44.67;;;22.60;;
9809;SDS011;4944;52.514;13.192;2022-12-01T02:18:41;45.97;;;23.80;;
9809;SDS011;4944;52.514;13.192;2022-12-01T02:21:24;44.60;;;22.27;;
9809;SDS011;4944;52.514;13.192;2022-12-01T02:27:12;38.30;;;21.70;;
9809;SDS011;4944;52.514;13.192;2022-12-01T02:29:54;46.17;;;23.93;;
9809;SDS011;4944;52.514;13.192;2022-12-01T02:32:34;44.53;;;23.50;;
9809;SDS011;4944;52.514;13.192;2022-12-01T02:35:20;48.00;;;22.63;;
9809;SDS011;4944;52.514;13.192;2022-12-01T02:37:56;48.63;;;23.37;;
9809;SDS011;4944;52.514;13.192;2022-12-01T02:40:30;46.07;;;23.47;;
9809;SDS011;4944;52.514;13.192;2022-12-01T02:43:02;40.90;;;22.30;;
9809;SDS011;4944;52.514;13.192;2022-12-01T02:45:36;48.27;;;24.27;;
9809;SDS011;4944;52.514;13.192;2022-12-01T02:48:10;41.20;;;23.00;;
9809;SDS011;4944;52.514;13.192;2022-12-01T02:50:41;45.60;;;23.60;;
9809;SDS011;4944;52.514;13.192;2022-12-01T02:53:10;45.30;;;24.67;;
9809;SDS011;4944;52.514;13.192;2022-12-01T02:55:45;42.47;;;22.93;;
9809;SDS011;4944;52.514;13.192;2022-12-01T02:58:13;47.80;;;23.90;;
9809;SDS011;4944;52.514;13.192;2022-12-01T03:00:41;46.90;;;24.03;;
9809;SDS011;4944;52.514;13.192;2022-12-01T03:03:23;46.50;;;24.90;;
9809;SDS011;4944;52.514;13.192;2022-12-01T03:06:02;45.77;;;22.60;;
9809;SDS011;4944;52.514;13.192;2022-12-01T03:08:37;46.03;;;24.40;;
9809;SDS011;4944;52.514;13.192;2022-12-01T03:11:11;45.43;;;23.60;;
9809;SDS011;4944;52.514;13.192;2022-12-01T03:13:52;49.57;;;24.27;;
9809;SDS011;4944;52.514;13.192;2022-12-01T03:16:32;50.23;;;24.53;;
9809;SDS011;4944;52.514;13.192;2022-12-01T03:19:08;46.77;;;23.80;;
9809;SDS011;4944;52.514;13.192;2022-12-01T03:21:40;50.70;;;23.80;;
9809;SDS011;4944;52.514;13.192;2022-12-01T03:24:12;47.20;;;23.20;;
9809;SDS011;4944;52.514;13.192;2022-12-01T03:26:43;45.03;;;23.13;;
9809;SDS011;4944;52.514;13.192;2022-12-01T03:29:15;49.20;;;24.70;;
9809;SDS011;4944;52.514;13.192;2022-12-01T03:31:47;51.17;;;24.27;;
9809;SDS011;4944;52.514;13.192;2022-12-01T03:34:20;45.30;;;24.23;;
9809;SDS011;4944;52.514;13.192;2022-12-01T03:36:55;49.60;;;23.87;;
9809;SDS011;4944;52.514;13.192;2022-12-01T03:39:28;43.53;;;23.30;;
9809;SDS011;4944;52.514;13.192;2022-12-01T03:41:59;48.23;;;23.80;;
9809;SDS011;4944;52.514;13.192;2022-12-01T03:44:30;44.43;;;23.33;;
9809;SDS011;4944;52.514;13.192;2022-12-01T03:47:02;52.93;;;24.83;;
9809;SDS011;4944;52.514;13.192;2022-12-01T03:49:32;45.47;;;24.07;;
9809;SDS011;4944;52.514;13.192;2022-12-01T03:52:03;49.80;;;24.13;;
9809;SDS011;4944;52.514;13.192;2022-12-01T03:54:40;46.57;;;22.57;;
9809;SDS011;4944;52.514;13.192;2022-12-01T03:57:15;51.90;;;25.10;;
9809;SDS011;4944;52.514;13.192;2022-12-01T03:59:45;50.50;;;24.37;;
9809;SDS011;4944;52.514;13.192;2022-12-01T04:02:13;56.63;;;26.10;;
9809;SDS011;4944;52.514;13.192;2022-12-01T04:04:42;47.27;;;24.07;;
9809;SDS011;4944;52.514;13.192;2022-12-01T04:07:09;48.77;;;24.80;;
9809;SDS011;4944;52.514;13.192;2022-12-01T04:09:37;53.53;;;25.13;;
9809;SDS011;4944;52.514;13.192;2022-12-01T04:12:05;50.17;;;24.43;;
9809;SDS011;4944;52.514;13.192;2022-12-01T04:14:52;49.77;;;25.00;;
9809;SDS011;4944;52.514;13.192;2022-12-01T04:17:18;48.33;;;24.10;;
9809;SDS011;4944;52.514;13.192;2022-12-01T04:19:47;47.13;;;24.23;;
9809;SDS011;4944;52.514;13.192;2022-12-01T04:22:13;51.47;;;24.87;;
9809;SDS011;4944;52.514;13.192;2022-12-01T04:24:40;52.37;;;25.30;;
9809;SDS011;4944;52.514;13.192;2022-12-01T04:27:07;49.37;;;23.90;;
9809;SDS011;4944;52.514;13.192;2022-12-01T04:29:34;53.37;;;25.63;;
9809;SDS011;4944;52.514;13.192;2022-12-01T04:32:01;54.03;;;25.67;;
9809;SDS011;4944;52.514;13.192;2022-12-01T04:34:28;50.33;;;25.83;;
9809;SDS011;4944;52.514;13.192;2022-12-01T04:36:56;50.50;;;25.23;;
9809;SDS011;4944;52.514;13.192;2022-12-01T04:39:23;47.57;;;25.83;;
9809;SDS011;4944;52.514;13.192;2022-12-01T04:41:52;46.37;;;24.70;;
9809;SDS011;4944;52.514;13.192;2022-12-01T04:44:19;53.43;;;25.93;;
9809;SDS011;4944;52.514;13.192;2022-12-01T04:46:46;48.90;;;24.97;;
9809;SDS011;4944;52.514;13.192;2022-12-01T04:49:13;51.97;;;25.67;;
9809;SDS011;4944;52.514;13.192;2022-12-01T04:51:40;56.10;;;25.60;;
9809;SDS011;4944;52.514;13.192;2022-12-01T04:54:09;54.93;;;25.43;;
9809;SDS011;4944;52.514;13.192;2022-12-01T04:56:36;54.73;;;26.50;;
9809;SDS011;4944;52.514;13.192;2022-12-01T04:59:03;56.20;;;26.43;;
9809;SDS011;4944;52.514;13.192;2022-12-01T05:01:30;55.77;;;27.47;;
9809;SDS011;4944;52.514;13.192;2022-12-01T05:03:57;52.90;;;26.33;;
9809;SDS011;4944;52.514;13.192;2022-12-01T05:06:24;55.87;;;26.73;;
9809;SDS011;4944;52.514;13.192;2022-12-01T05:08:53;58.63;;;26.63;;
9809;SDS011;4944;52.514;13.192;2022-12-01T05:11:22;55.73;;;26.27;;
9809;SDS011;4944;52.514;13.192;2022-12-01T05:13:50;60.57;;;27.67;;
9809;SDS011;4944;52.514;13.192;2022-12-01T05:16:18;52.27;;;26.80;;
9809;SDS011;4944;52.514;13.192;2022-12-01T05:18:47;54.23;;;26.67;;
9809;SDS011;4944;52.514;13.192;2022-12-01T05:21:14;56.30;;;27.70;;
9809;SDS011;4944;52.514;13.192;2022-12-01T05:23:41;60.77;;;28.77;;
9809;SDS011;4944;52.514;13.192;2022-12-01T05:26:09;56.57;;;26.50;;
9809;SDS011;4944;52.514;13.192;2022-12-01T05:28:38;50.27;;;26.50;;
9809;SDS011;4944;52.514;13.192;2022-12-01T05:31:05;55.53;;;27.67;;
9809;SDS011;4944;52.514;13.192;2022-12-01T05:33:32;53.87;;;27.33;;
9809;SDS011;4944;52.514;13.192;2022-12-01T05:35:58;58.13;;;27.67;;
9809;SDS011;4944;52.514;13.192;2022-12-01T05:38:26;55.33;;;26.77;;
9809;SDS011;4944;52.514;13.192;2022-12-01T05:40:53;58.70;;;26.30;;
9809;SDS011;4944;52.514;13.192;2022-12-01T05:43:21;58.17;;;28.30;;
9809;SDS011;4944;52.514;13.192;2022-12-01T05:45:50;58.57;;;28.53;;
9809;SDS011;4944;52.514;13.192;2022-12-01T05:48:17;56.77;;;27.27;;
9809;SDS011;4944;52.514;13.192;2022-12-01T05:50:43;56.47;;;28.07;;
9809;SDS011;4944;52.514;13.192;2022-12-01T05:53:10;54.73;;;26.50;;
9809;SDS011;4944;52.514;13.192;2022-12-01T05:55:38;54.80;;;25.73;;
9809;SDS011;4944;52.514;13.192;2022-12-01T05:58:05;49.33;;;26.10;;
9809;SDS011;4944;52.514;13.192;2022-12-01T06:00:33;52.43;;;26.83;;
9809;SDS011;4944;52.514;13.192;2022-12-01T06:03:01;49.07;;;25.73;;
9809;SDS011;4944;52.514;13.192;2022-12-01T06:05:28;56.90;;;26.63;;
9809;SDS011;4944;52.514;13.192;2022-12-01T06:07:55;48.07;;;25.50;;
9809;SDS011;4944;52.514;13.192;2022-12-01T06:10:22;51.33;;;26.00;;
9809;SDS011;4944;52.514;13.192;2022-12-01T06:12:49;49.37;;;26.23;;
9809;SDS011;4944;52.514;13.192;2022-12-01T06:15:15;50.27;;;25.70;;
9809;SDS011;4944;52.514;13.192;2022-12-01T06:17:42;52.20;;;25.03;;
9809;SDS011;4944;52.514;13.192;2022-12-01T06:20:11;47.57;;;26.17;;
9809;SDS011;4944;52.514;13.192;2022-12-01T06:22:38;52.50;;;26.70;;
9809;SDS011;4944;52.514;13.192;2022-12-01T06:25:06;52.20;;;26.57;;
9809;SDS011;4944;52.514;13.192;2022-12-01T06:27:33;49.23;;;25.23;;
9809;SDS011;4944;52.514;13.192;2022-12-01T06:30:00;48.67;;;25.17;;
9809;SDS011;4944;52.514;13.192;2022-12-01T06:32:28;52.73;;;26.77;;
9809;SDS011;4944;52.514;13.192;2022-12-01T06:34:55;46.97;;;26.53;;
9809;SDS011;4944;52.514;13.192;2022-12-01T06:37:23;49.27;;;26.07;;
9809;SDS011;4944;52.514;13.192;2022-12-01T06:39:50;50.83;;;26.33;;
9809;SDS011;4944;52.514;13.192;2022-12-01T06:42:17;50.93;;;27.03;;
9809;SDS011;4944;52.514;13.192;2022-12-01T06:44:44;48.77;;;26.60;;
9809;SDS011;4944;52.514;13.192;2022-12-01T06:47:11;51.90;;;27.93;;
9809;SDS011;4944;52.514;13.192;2022-12-01T06:49:39;51.00;;;27.13;;
9809;SDS011;4944;52.514;13.192;2022-12-01T06:52:06;56.80;;;28.97;;
9809;SDS011;4944;52.514;13.192;2022-12-01T06:54:35;55.97;;;29.23;;
9809;SDS011;4944;52.514;13.192;2022-12-01T06:57:03;54.23;;;29.43;;
9809;SDS011;4944;52.514;13.192;2022-12-01T06:59:30;53.73;;;27.13;;
9809;SDS011;4944;52.514;13.192;2022-12-01T07:01:57;57.83;;;29.50;;
9809;SDS011;4944;52.514;13.192;2022-12-01T07:04:24;48.70;;;27.27;;
9809;SDS011;4944;52.514;13.192;2022-12-01T07:06:51;51.10;;;27.70;;
9809;SDS011;4944;52.514;13.192;2022-12-01T07:09:17;51.93;;;28.37;;
9809;SDS011;4944;52.514;13.192;2022-12-01T07:11:46;47.40;;;26.70;;
9809;SDS011;4944;52.514;13.192;2022-12-01T07:14:15;49.00;;;27.27;;
9809;SDS011;4944;52.514;13.192;2022-12-01T07:16:47;48.30;;;28.17;;
9809;SDS011;4944;52.514;13.192;2022-12-01T07:19:14;51.50;;;27.10;;
9809;SDS011;4944;52.514;13.192;2022-12-01T07:21:40;46.73;;;27.27;;
9809;SDS011;4944;52.514;13.192;2022-12-01T07:24:08;49.60;;;27.67;;
9809;SDS011;4944;52.514;13.192;2022-12-01T07:26:36;48.73;;;26.13;;
9809;SDS011;4944;52.514;13.192;2022-12-01T07:29:05;45.10;;;26.93;;
9809;SDS011;4944;52.514;13.192;2022-12-01T07:31:32;49.23;;;27.73;;
9809;SDS011;4944;52.514;13.192;2022-12-01T07:33:59;50.83;;;27.23;;
9809;SDS011;4944;52.514;13.192;2022-12-01T07:36:26;46.30;;;26.83;;
9809;SDS011;4944;52.514;13.192;2022-12-01T07:38:53;44.63;;;26.60;;
9809;SDS011;4944;52.514;13.192;2022-12-01T07:41:20;48.40;;;27.80;;
9809;SDS011;4944;52.514;13.192;2022-12-01T07:43:47;47.47;;;27.37;;
9809;SDS011;4944;52.514;13.192;2022-12-01T07:46:16;48.57;;;27.00;;
9809;SDS011;4944;52.514;13.192;2022-12-01T07:48:44;51.87;;;28.53;;
9809;SDS011;4944;52.514;13.192;2022-12-01T07:51:12;49.77;;;27.73;;
9809;SDS011;4944;52.514;13.192;2022-12-01T07:53:41;44.90;;;26.87;;
9809;SDS011;4944;52.514;13.192;2022-12-01T07:56:08;44.77;;;26.70;;
9809;SDS011;4944;52.514;13.192;2022-12-01T07:58:36;45.57;;;27.63;;
9809;SDS011;4944;52.514;13.192;2022-12-01T08:01:06;45.77;;;26.77;;
9809;SDS011;4944;52.514;13.192;2022-12-01T08:03:36;48.80;;;27.53;;
9809;SDS011;4944;52.514;13.192;2022-12-01T08:06:03;49.20;;;28.30;;
9809;SDS011;4944;52.514;13.192;2022-12-01T08:08:31;46.47;;;26.90;;
9809;SDS011;4944;52.514;13.192;2022-12-01T08:11:00;49.67;;;28.50;;
9809;SDS011;4944;52.514;13.192;2022-12-01T08:13:28;49.73;;;28.40;;
9809;SDS011;4944;52.514;13.192;2022-12-01T08:15:55;53.43;;;29.57;;
9809;SDS011;4944;52.514;13.192;2022-12-01T08:18:22;49.70;;;28.70;;
9809;SDS011;4944;52.514;13.192;2022-12-01T08:20:54;52.87;;;29.70;;
9809;SDS011;4944;52.514;13.192;2022-12-01T08:23:22;54.27;;;31.80;;
9809;SDS011;4944;52.514;13.192;2022-12-01T08:25:49;58.07;;;30.73;;
9809;SDS011;4944;52.514;13.192;2022-12-01T08:28:16;52.23;;;28.23;;
9809;SDS011;4944;52.514;13.192;2022-12-01T08:30:43;61.33;;;32.57;;
9809;SDS011;4944;52.514;13.192;2022-12-01T08:33:10;53.10;;;30.57;;
9809;SDS011;4944;52.514;13.192;2022-12-01T08:35:37;53.17;;;31.30;;
9809;SDS011;4944;52.514;13.192;2022-12-01T08:38:05;55.07;;;31.83;;
9809;SDS011;4944;52.514;13.192;2022-12-01T08:40:32;69.90;;;33.00;;
9809;SDS011;4944;52.514;13.192;2022-12-01T08:42:59;59.77;;;32.87;;
9809;SDS011;4944;52.514;13.192;2022-12-01T08:45:26;61.57;;;33.60;;
9809;SDS011;4944;52.514;13.192;2022-12-01T08:47:52;60.67;;;31.67;;
9809;SDS011;4944;52.514;13.192;2022-12-01T08:50:22;61.43;;;34.23;;
9809;SDS011;4944;52.514;13.192;2022-12-01T08:52:50;66.33;;;31.83;;
9809;SDS011;4944;52.514;13.192;2022-12-01T08:55:19;65.00;;;34.03;;
9809;SDS011;4944;52.514;13.192;2022-12-01T08:57:47;70.93;;;35.40;;
9809;SDS011;4944;52.514;13.192;2022-12-01T09:00:14;63.33;;;33.73;;
9809;SDS011;4944;52.514;13.192;2022-12-01T09:02:41;67.87;;;35.30;;
9809;SDS011;4944;52.514;13.192;2022-12-01T09:05:08;67.70;;;35.13;;
9809;SDS011;4944;52.514;13.192;2022-12-01T09:07:35;70.07;;;36.47;;
9809;SDS011;4944;52.514;13.192;2022-12-01T09:10:02;75.20;;;37.40;;
9809;SDS011;4944;52.514;13.192;2022-12-01T09:12:31;71.80;;;36.60;;
9809;SDS011;4944;52.514;13.192;2022-12-01T09:14:58;71.57;;;37.47;;
9809;SDS011;4944;52.514;13.192;2022-12-01T09:17:25;72.80;;;37.20;;
9809;SDS011;4944;52.514;13.192;2022-12-01T09:19:53;71.80;;;37.43;;
9809;SDS011;4944;52.514;13.192;2022-12-01T09:22:20;77.97;;;36.97;;
9809;SDS011;4944;52.514;13.192;2022-12-01T09:24:47;74.67;;;37.73;;
9809;SDS011;4944;52.514;13.192;2022-12-01T09:27:13;84.30;;;39.07;;
9809;SDS011;4944;52.514;13.192;2022-12-01T09:29:42;72.13;;;37.10;;
9809;SDS011;4944;52.514;13.192;2022-12-01T09:32:09;66.83;;;34.03;;
9809;SDS011;4944;52.514;13.192;2022-12-01T09:34:35;69.53;;;34.70;;
9809;SDS011;4944;52.514;13.192;2022-12-01T09:37:02;68.10;;;35.63;;
9809;SDS011;4944;52.514;13.192;2022-12-01T09:39:30;67.67;;;35.27;;
9809;SDS011;4944;52.514;13.192;2022-12-01T09:41:58;66.20;;;34.93;;
9809;SDS011;4944;52.514;13.192;2022-12-01T09:44:31;72.27;;;35.23;;
9809;SDS011;4944;52.514;13.192;2022-12-01T09:47:07;67.00;;;34.37;;
9809;SDS011;4944;52.514;13.192;2022-12-01T09:49:44;70.43;;;34.93;;
9809;SDS011;4944;52.514;13.192;2022-12-01T09:52:18;69.30;;;35.60;;
9809;SDS011;4944;52.514;13.192;2022-12-01T09:54:47;72.90;;;36.67;;
9809;SDS011;4944;52.514;13.192;2022-12-01T09:57:15;75.37;;;36.83;;
9809;SDS011;4944;52.514;13.192;2022-12-01T09:59:50;74.17;;;36.13;;
9809;SDS011;4944;52.514;13.192;2022-12-01T10:02:24;71.80;;;36.43;;
9809;SDS011;4944;52.514;13.192;2022-12-01T10:04:57;68.87;;;36.27;;
9809;SDS011;4944;52.514;13.192;2022-12-01T10:07:28;68.17;;;35.13;;
9809;SDS011;4944;52.514;13.192;2022-12-01T10:09:58;73.10;;;36.67;;
9809;SDS011;4944;52.514;13.192;2022-12-01T10:12:28;77.73;;;38.20;;
9809;SDS011;4944;52.514;13.192;2022-12-01T10:14:59;74.20;;;36.93;;
9809;SDS011;4944;52.514;13.192;2022-12-01T10:17:39;76.03;;;39.00;;
9809;SDS011;4944;52.514;13.192;2022-12-01T10:20:13;82.70;;;38.83;;
9809;SDS011;4944;52.514;13.192;2022-12-01T10:22:47;79.07;;;39.20;;
9809;SDS011;4944;52.514;13.192;2022-12-01T10:25:23;85.10;;;41.43;;
9809;SDS011;4944;52.514;13.192;2022-12-01T10:30:55;79.07;;;39.00;;
9809;SDS011;4944;52.514;13.192;2022-12-01T10:33:31;79.63;;;39.03;;
9809;SDS011;4944;52.514;13.192;2022-12-01T10:36:01;81.10;;;40.10;;
9809;SDS011;4944;52.514;13.192;2022-12-01T10:38:28;82.63;;;40.87;;
9809;SDS011;4944;52.514;13.192;2022-12-01T10:40:59;83.60;;;40.07;;
9809;SDS011;4944;52.514;13.192;2022-12-01T10:43:28;76.10;;;38.57;;
9809;SDS011;4944;52.514;13.192;2022-12-01T10:46:00;77.80;;;39.10;;
9809;SDS011;4944;52.514;13.192;2022-12-01T10:48:51;76.97;;;39.27;;
9809;SDS011;4944;52.514;13.192;2022-12-01T10:51:20;80.80;;;38.97;;
9809;SDS011;4944;52.514;13.192;2022-12-01T10:53:47;77.80;;;38.20;;
9809;SDS011;4944;52.514;13.192;2022-12-01T10:56:16;74.87;;;37.60;;
9809;SDS011;4944;52.514;13.192;2022-12-01T10:58:45;71.13;;;36.77;;
9809;SDS011;4944;52.514;13.192;2022-12-01T11:01:15;69.70;;;35.90;;
9809;SDS011;4944;52.514;13.192;2022-12-01T11:03:48;65.30;;;36.20;;
9809;SDS011;4944;52.514;13.192;2022-12-01T11:06:20;65.40;;;35.27;;
9809;SDS011;4944;52.514;13.192;2022-12-01T11:08:54;65.67;;;35.73;;
9809;SDS011;4944;52.514;13.192;2022-12-01T11:11:24;64.40;;;34.50;;
9809;SDS011;4944;52.514;13.192;2022-12-01T11:13:54;62.43;;;33.10;;
9809;SDS011;4944;52.514;13.192;2022-12-01T11:16:38;59.33;;;33.00;;
9809;SDS011;4944;52.514;13.192;2022-12-01T11:21:57;58.00;;;31.80;;
9809;SDS011;4944;52.514;13.192;2022-12-01T11:24:26;58.57;;;32.10;;
9809;SDS011;4944;52.514;13.192;2022-12-01T11:27:11;56.73;;;32.07;;
9809;SDS011;4944;52.514;13.192;2022-12-01T11:29:41;58.03;;;32.03;;
9809;SDS011;4944;52.514;13.192;2022-12-01T11:32:15;56.60;;;31.40;;
9809;SDS011;4944;52.514;13.192;2022-12-01T11:34:51;54.63;;;30.83;;
9809;SDS011;4944;52.514;13.192;2022-12-01T11:37:21;50.60;;;31.10;;
9809;SDS011;4944;52.514;13.192;2022-12-01T11:39:51;56.23;;;31.73;;
9809;SDS011;4944;52.514;13.192;2022-12-01T11:42:19;50.40;;;29.33;;
9809;SDS011;4944;52.514;13.192;2022-12-01T11:44:50;52.87;;;31.37;;
9809;SDS011;4944;52.514;13.192;2022-12-01T11:47:19;54.17;;;31.70;;
9809;SDS011;4944;52.514;13.192;2022-12-01T11:49:53;52.30;;;31.13;;
9809;SDS011;4944;52.514;13.192;2022-12-01T11:52:22;52.90;;;30.60;;
9809;SDS011;4944;52.514;13.192;2022-12-01T11:54:56;52.20;;;29.70;;
9809;SDS011;4944;52.514;13.192;2022-12-01T11:57:24;54.37;;;30.93;;
9809;SDS011;4944;52.514;13.192;2022-12-01T11:59:52;50.20;;;31.33;;
9809;SDS011;4944;52.514;13.192;2022-12-01T12:02:21;52.57;;;30.53;;
9809;SDS011;4944;52.514;13.192;2022-12-01T12:05:19;54.17;;;32.10;;
9809;SDS011;4944;52.514;13.192;2022-12-01T12:08:11;52.33;;;29.83;;
9809;SDS011;4944;52.514;13.192;2022-12-01T12:10:47;54.43;;;30.27;;
9809;SDS011;4944;52.514;13.192;2022-12-01T12:13:30;53.03;;;30.50;;
9809;SDS011;4944;52.514;13.192;2022-12-01T12:16:09;51.07;;;31.23;;
9809;SDS011;4944;52.514;13.192;2022-12-01T12:18:47;51.20;;;30.60;;
9809;SDS011;4944;52.514;13.192;2022-12-01T12:21:31;48.33;;;30.27;;
9809;SDS011;4944;52.514;13.192;2022-12-01T12:24:15;56.43;;;32.10;;
9809;SDS011;4944;52.514;13.192;2022-12-01T12:26:59;53.87;;;31.47;;
9809;SDS011;4944;52.514;13.192;2022-12-01T12:29:45;53.83;;;30.40;;
9809;SDS011;4944;52.514;13.192;2022-12-01T12:35:30;53.83;;;31.30;;
9809;SDS011;4944;52.514;13.192;2022-12-01T12:40:59;56.57;;;31.30;;
9809;SDS011;4944;52.514;13.192;2022-12-01T12:43:37;49.90;;;30.13;;
9809;SDS011;4944;52.514;13.192;2022-12-01T12:46:15;53.33;;;31.70;;
9809;SDS011;4944;52.514;13.192;2022-12-01T12:48:54;47.83;;;29.70;;
9809;SDS011;4944;52.514;13.192;2022-12-01T12:51:31;53.63;;;30.23;;
9809;SDS011;4944;52.514;13.192;2022-12-01T12:54:09;49.67;;;29.87;;
9809;SDS011;4944;52.514;13.192;2022-12-01T12:56:45;51.23;;;30.20;;
9809;SDS011;4944;52.514;13.192;2022-12-01T12:59:14;48.40;;;29.20;;
9809;SDS011;4944;52.514;13.192;2022-12-01T13:01:51;49.00;;;30.60;;
9809;SDS011;4944;52.514;13.192;2022-12-01T13:04:24;49.13;;;30.07;;
9809;SDS011;4944;52.514;13.192;2022-12-01T13:06:59;49.07;;;30.83;;
9809;SDS011;4944;52.514;13.192;2022-12-01T13:09:30;49.97;;;30.33;;
9809;SDS011;4944;52.514;13.192;2022-12-01T13:12:03;47.80;;;30.20;;
9809;SDS011;4944;52.514;13.192;2022-12-01T13:14:34;46.63;;;29.97;;
9809;SDS011;4944;52.514;13.192;2022-12-01T13:17:07;48.67;;;29.87;;
9809;SDS011;4944;52.514;13.192;2022-12-01T13:19:39;47.40;;;28.77;;
9809;SDS011;4944;52.514;13.192;2022-12-01T13:22:09;48.27;;;30.27;;
9809;SDS011;4944;52.514;13.192;2022-12-01T13:24:39;45.73;;;28.90;;
9809;SDS011;4944;52.514;13.192;2022-12-01T13:27:11;43.23;;;28.33;;
9809;SDS011;4944;52.514;13.192;2022-12-01T13:29:43;46.60;;;29.50;;
9809;SDS011;4944;52.514;13.192;2022-12-01T13:32:24;45.30;;;28.30;;
9809;SDS011;4944;52.514;13.192;2022-12-01T13:34:54;41.77;;;26.63;;
9809;SDS011;4944;52.514;13.192;2022-12-01T13:37:24;39.50;;;25.80;;
9809;SDS011;4944;52.514;13.192;2022-12-01T13:39:54;43.30;;;26.30;;
9809;SDS011;4944;52.514;13.192;2022-12-01T13:42:31;45.13;;;27.17;;
9809;SDS011;4944;52.514;13.192;2022-12-01T13:45:00;44.47;;;27.03;;
9809;SDS011;4944;52.514;13.192;2022-12-01T13:47:40;42.17;;;26.30;;
9809;SDS011;4944;52.514;13.192;2022-12-01T13:53:23;37.67;;;24.90;;
9809;SDS011;4944;52.514;13.192;2022-12-01T13:55:57;40.33;;;25.60;;
9809;SDS011;4944;52.514;13.192;2022-12-01T13:58:41;40.73;;;26.23;;
9809;SDS011;4944;52.514;13.192;2022-12-01T14:09:51;39.63;;;24.67;;
9809;SDS011;4944;52.514;13.192;2022-12-01T14:12:24;40.57;;;26.43;;
9809;SDS011;4944;52.514;13.192;2022-12-01T14:14:56;39.00;;;25.30;;
9809;SDS011;4944;52.514;13.192;2022-12-01T14:17:26;39.67;;;25.70;;
9809;SDS011;4944;52.514;13.192;2022-12-01T14:19:55;39.73;;;25.30;;
9809;SDS011;4944;52.514;13.192;2022-12-01T14:22:33;38.70;;;25.67;;
9809;SDS011;4944;52.514;13.192;2022-12-01T14:25:02;39.07;;;24.90;;
9809;SDS011;4944;52.514;13.192;2022-12-01T14:27:34;37.53;;;23.87;;
9809;SDS011;4944;52.514;13.192;2022-12-01T14:33:42;37.93;;;23.63;;
9809;SDS011;4944;52.514;13.192;2022-12-01T14:39:04;38.70;;;24.87;;
9809;SDS011;4944;52.514;13.192;2022-12-01T14:41:37;37.80;;;23.17;;
9809;SDS011;4944;52.514;13.192;2022-12-01T14:44:13;36.07;;;24.77;;
9809;SDS011;4944;52.514;13.192;2022-12-01T14:46:47;39.13;;;24.70;;
9809;SDS011;4944;52.514;13.192;2022-12-01T14:49:19;36.47;;;22.87;;
9809;SDS011;4944;52.514;13.192;2022-12-01T14:51:50;35.63;;;23.53;;
9809;SDS011;4944;52.514;13.192;2022-12-01T14:54:21;37.60;;;24.30;;
9809;SDS011;4944;52.514;13.192;2022-12-01T14:56:51;35.30;;;23.23;;
9809;SDS011;4944;52.514;13.192;2022-12-01T14:59:24;35.07;;;22.77;;
9809;SDS011;4944;52.514;13.192;2022-12-01T15:01:52;33.73;;;23.03;;
9809;SDS011;4944;52.514;13.192;2022-12-01T15:04:21;35.63;;;23.30;;
9809;SDS011;4944;52.514;13.192;2022-12-01T15:06:52;35.07;;;23.17;;
9809;SDS011;4944;52.514;13.192;2022-12-01T15:09:21;34.77;;;23.13;;
9809;SDS011;4944;52.514;13.192;2022-12-01T15:11:50;37.97;;;24.17;;
9809;SDS011;4944;52.514;13.192;2022-12-01T15:14:28;38.53;;;24.13;;
9809;SDS011;4944;52.514;13.192;2022-12-01T15:16:57;37.70;;;24.13;;
9809;SDS011;4944;52.514;13.192;2022-12-01T15:19:30;38.20;;;23.93;;
9809;SDS011;4944;52.514;13.192;2022-12-01T15:22:01;34.63;;;23.60;;
9809;SDS011;4944;52.514;13.192;2022-12-01T15:24:30;37.60;;;24.43;;
9809;SDS011;4944;52.514;13.192;2022-12-01T15:26:58;37.40;;;24.43;;